sensor_id;sensor_type;location;lat;lon;timestamp;temperature;humidity
59505;DHT22;45321;53.200;5.814;2024-03-08T00:01:35;4.30;79.80
59505;DHT22;45321;53.200;5.814;2024-03-08T00:04:01;4.20;79.90
59505;DHT22;45321;53.200;5.814;2024-03-08T00:06:27;4.30;79.90
59505;DHT22;45321;53.200;5.814;2024-03-08T00:08:53;4.20;79.80
59505;DHT22;45321;53.200;5.814;2024-03-08T00:11:19;4.20;79.90
59505;DHT22;45321;53.200;5.814;2024-03-08T00:13:44;4.10;79.90
59505;DHT22;45321;53.200;5.814;2024-03-08T00:16:10;4.10;80.00
59505;DHT22;45321;53.200;5.814;2024-03-08T00:18:36;4.10;80.20
59505;DHT22;45321;53.200;5.814;2024-03-08T00:21:02;4.10;80.20
59505;DHT22;45321;53.200;5.814;2024-03-08T00:23:28;4.10;80.20
59505;DHT22;45321;53.200;5.814;2024-03-08T00:25:53;4.10;80.20
59505;DHT22;45321;53.200;5.814;2024-03-08T00:28:21;4.10;80.30
59505;DHT22;45321;53.200;5.814;2024-03-08T00:30:47;4.10;80.40
59505;DHT22;45321;53.200;5.814;2024-03-08T00:33:12;4.10;80.40
59505;DHT22;45321;53.200;5.814;2024-03-08T00:35:38;4.10;80.40
59505;DHT22;45321;53.200;5.814;2024-03-08T00:38:04;4.10;80.40
59505;DHT22;45321;53.200;5.814;2024-03-08T00:40:30;4.10;80.40
59505;DHT22;45321;53.200;5.814;2024-03-08T00:42:56;4.10;80.40
59505;DHT22;45321;53.200;5.814;2024-03-08T00:45:22;4.10;80.40
59505;DHT22;45321;53.200;5.814;2024-03-08T00:47:49;4.00;80.40
59505;DHT22;45321;53.200;5.814;2024-03-08T00:50:14;4.00;80.60
59505;DHT22;45321;53.200;5.814;2024-03-08T00:52:40;4.00;80.60
59505;DHT22;45321;53.200;5.814;2024-03-08T00:55:06;4.00;80.70
59505;DHT22;45321;53.200;5.814;2024-03-08T00:57:33;4.00;80.70
59505;DHT22;45321;53.200;5.814;2024-03-08T00:59:59;4.00;80.70
59505;DHT22;45321;53.200;5.814;2024-03-08T01:02:25;3.90;80.80
59505;DHT22;45321;53.200;5.814;2024-03-08T01:04:50;3.90;80.80
59505;DHT22;45321;53.200;5.814;2024-03-08T01:07:16;3.90;80.90
59505;DHT22;45321;53.200;5.814;2024-03-08T01:09:42;3.90;81.00
59505;DHT22;45321;53.200;5.814;2024-03-08T01:12:08;3.90;81.10
59505;DHT22;45321;53.200;5.814;2024-03-08T01:14:33;3.90;81.10
59505;DHT22;45321;53.200;5.814;2024-03-08T01:16:59;3.90;81.10
59505;DHT22;45321;53.200;5.814;2024-03-08T01:19:25;3.90;81.20
59505;DHT22;45321;53.200;5.814;2024-03-08T01:21:51;3.90;81.20
59505;DHT22;45321;53.200;5.814;2024-03-08T01:24:16;3.90;81.30
59505;DHT22;45321;53.200;5.814;2024-03-08T01:26:42;3.90;81.30
59505;DHT22;45321;53.200;5.814;2024-03-08T01:29:08;3.90;81.30
59505;DHT22;45321;53.200;5.814;2024-03-08T01:31:34;3.90;81.20
59505;DHT22;45321;53.200;5.814;2024-03-08T01:34:02;3.90;81.20
59505;DHT22;45321;53.200;5.814;2024-03-08T01:36:27;3.90;81.20
59505;DHT22;45321;53.200;5.814;2024-03-08T01:38:53;3.90;81.20
59505;DHT22;45321;53.200;5.814;2024-03-08T01:41:19;3.90;81.30
59505;DHT22;45321;53.200;5.814;2024-03-08T01:43:45;3.90;81.30
59505;DHT22;45321;53.200;5.814;2024-03-08T01:46:13;3.90;81.30
59505;DHT22;45321;53.200;5.814;2024-03-08T01:48:42;3.90;81.40
59505;DHT22;45321;53.200;5.814;2024-03-08T01:51:08;3.90;81.30
59505;DHT22;45321;53.200;5.814;2024-03-08T01:53:34;3.90;81.40
59505;DHT22;45321;53.200;5.814;2024-03-08T01:56:01;3.90;81.40
59505;DHT22;45321;53.200;5.814;2024-03-08T01:58:29;3.80;81.40
59505;DHT22;45321;53.200;5.814;2024-03-08T02:00:56;3.80;81.40
59505;DHT22;45321;53.200;5.814;2024-03-08T02:03:22;3.80;81.50
59505;DHT22;45321;53.200;5.814;2024-03-08T02:05:49;3.80;81.40
59505;DHT22;45321;53.200;5.814;2024-03-08T02:08:15;3.80;81.50
59505;DHT22;45321;53.200;5.814;2024-03-08T02:10:43;3.80;81.50
59505;DHT22;45321;53.200;5.814;2024-03-08T02:13:09;3.80;81.50
59505;DHT22;45321;53.200;5.814;2024-03-08T02:15:54;3.80;81.60
59505;DHT22;45321;53.200;5.814;2024-03-08T02:18:21;3.80;81.40
59505;DHT22;45321;53.200;5.814;2024-03-08T02:20:51;3.80;81.40
59505;DHT22;45321;53.200;5.814;2024-03-08T02:23:19;3.80;81.50
59505;DHT22;45321;53.200;5.814;2024-03-08T02:25:45;3.80;81.50
59505;DHT22;45321;53.200;5.814;2024-03-08T02:28:12;3.80;81.40
59505;DHT22;45321;53.200;5.814;2024-03-08T02:30:38;3.70;81.40
59505;DHT22;45321;53.200;5.814;2024-03-08T02:33:05;3.70;81.40
59505;DHT22;45321;53.200;5.814;2024-03-08T02:35:31;3.70;81.40
59505;DHT22;45321;53.200;5.814;2024-03-08T02:37:57;3.60;81.40
59505;DHT22;45321;53.200;5.814;2024-03-08T02:40:24;3.60;81.40
59505;DHT22;45321;53.200;5.814;2024-03-08T02:42:49;3.60;81.40
59505;DHT22;45321;53.200;5.814;2024-03-08T02:45:15;3.60;81.50
59505;DHT22;45321;53.200;5.814;2024-03-08T02:47:41;3.60;81.50
59505;DHT22;45321;53.200;5.814;2024-03-08T02:50:07;3.60;81.40
59505;DHT22;45321;53.200;5.814;2024-03-08T02:52:35;3.60;81.40
59505;DHT22;45321;53.200;5.814;2024-03-08T02:55:04;3.50;81.40
59505;DHT22;45321;53.200;5.814;2024-03-08T02:57:32;3.50;81.40
59505;DHT22;45321;53.200;5.814;2024-03-08T02:59:58;3.50;81.40
59505;DHT22;45321;53.200;5.814;2024-03-08T03:02:25;3.50;81.50
59505;DHT22;45321;53.200;5.814;2024-03-08T03:04:52;3.50;81.50
59505;DHT22;45321;53.200;5.814;2024-03-08T03:07:18;3.50;81.30
59505;DHT22;45321;53.200;5.814;2024-03-08T03:09:44;3.50;81.40
59505;DHT22;45321;53.200;5.814;2024-03-08T03:12:10;3.50;81.40
59505;DHT22;45321;53.200;5.814;2024-03-08T03:14:36;3.50;81.40
59505;DHT22;45321;53.200;5.814;2024-03-08T03:17:05;3.40;81.40
59505;DHT22;45321;53.200;5.814;2024-03-08T03:19:31;3.40;81.30
59505;DHT22;45321;53.200;5.814;2024-03-08T03:21:57;3.40;81.30
59505;DHT22;45321;53.200;5.814;2024-03-08T03:24:23;3.40;81.40
59505;DHT22;45321;53.200;5.814;2024-03-08T03:26:49;3.40;81.40
59505;DHT22;45321;53.200;5.814;2024-03-08T03:29:15;3.40;81.30
59505;DHT22;45321;53.200;5.814;2024-03-08T03:31:42;3.40;81.30
59505;DHT22;45321;53.200;5.814;2024-03-08T03:34:12;3.40;81.20
59505;DHT22;45321;53.200;5.814;2024-03-08T03:36:38;3.40;81.30
59505;DHT22;45321;53.200;5.814;2024-03-08T03:39:09;3.30;81.30
59505;DHT22;45321;53.200;5.814;2024-03-08T03:41:41;3.30;81.30
59505;DHT22;45321;53.200;5.814;2024-03-08T03:44:07;3.30;81.30
59505;DHT22;45321;53.200;5.814;2024-03-08T03:46:34;3.30;81.20
59505;DHT22;45321;53.200;5.814;2024-03-08T03:49:00;3.30;81.20
59505;DHT22;45321;53.200;5.814;2024-03-08T03:51:25;3.30;81.20
59505;DHT22;45321;53.200;5.814;2024-03-08T03:53:51;3.30;81.20
59505;DHT22;45321;53.200;5.814;2024-03-08T03:56:18;3.20;81.20
59505;DHT22;45321;53.200;5.814;2024-03-08T03:58:44;3.20;81.20
59505;DHT22;45321;53.200;5.814;2024-03-08T04:01:10;3.20;81.00
59505;DHT22;45321;53.200;5.814;2024-03-08T04:03:36;3.20;80.90
59505;DHT22;45321;53.200;5.814;2024-03-08T04:06:04;3.10;80.90
59505;DHT22;45321;53.200;5.814;2024-03-08T04:08:30;3.10;81.00
59505;DHT22;45321;53.200;5.814;2024-03-08T04:10:56;3.10;80.90
59505;DHT22;45321;53.200;5.814;2024-03-08T04:13:23;3.10;80.90
59505;DHT22;45321;53.200;5.814;2024-03-08T04:15:49;3.10;80.90
59505;DHT22;45321;53.200;5.814;2024-03-08T04:18:15;3.10;80.90
59505;DHT22;45321;53.200;5.814;2024-03-08T04:20:40;3.10;80.80
59505;DHT22;45321;53.200;5.814;2024-03-08T04:23:06;3.10;80.80
59505;DHT22;45321;53.200;5.814;2024-03-08T04:25:32;3.10;80.80
59505;DHT22;45321;53.200;5.814;2024-03-08T04:27:58;3.00;80.70
59505;DHT22;45321;53.200;5.814;2024-03-08T04:30:24;3.00;80.70
59505;DHT22;45321;53.200;5.814;2024-03-08T04:32:50;3.00;80.70
59505;DHT22;45321;53.200;5.814;2024-03-08T04:35:16;3.00;80.70
59505;DHT22;45321;53.200;5.814;2024-03-08T04:37:42;3.00;80.70
59505;DHT22;45321;53.200;5.814;2024-03-08T04:40:08;3.00;80.70
59505;DHT22;45321;53.200;5.814;2024-03-08T04:42:34;3.00;80.60
59505;DHT22;45321;53.200;5.814;2024-03-08T04:45:02;2.90;80.60
59505;DHT22;45321;53.200;5.814;2024-03-08T04:47:29;2.90;80.60
59505;DHT22;45321;53.200;5.814;2024-03-08T04:49:55;2.90;80.60
59505;DHT22;45321;53.200;5.814;2024-03-08T04:52:21;3.00;80.60
59505;DHT22;45321;53.200;5.814;2024-03-08T04:54:47;2.90;80.60
59505;DHT22;45321;53.200;5.814;2024-03-08T04:57:13;2.90;80.50
59505;DHT22;45321;53.200;5.814;2024-03-08T04:59:39;2.90;80.50
59505;DHT22;45321;53.200;5.814;2024-03-08T05:02:05;2.90;80.50
59505;DHT22;45321;53.200;5.814;2024-03-08T05:04:32;2.90;80.50
59505;DHT22;45321;53.200;5.814;2024-03-08T05:06:58;2.90;80.50
59505;DHT22;45321;53.200;5.814;2024-03-08T05:09:27;2.90;80.50
59505;DHT22;45321;53.200;5.814;2024-03-08T05:11:54;2.90;80.50
59505;DHT22;45321;53.200;5.814;2024-03-08T05:14:20;2.90;80.50
59505;DHT22;45321;53.200;5.814;2024-03-08T05:16:47;2.90;80.40
59505;DHT22;45321;53.200;5.814;2024-03-08T05:19:20;2.80;80.40
59505;DHT22;45321;53.200;5.814;2024-03-08T05:21:47;2.80;80.40
59505;DHT22;45321;53.200;5.814;2024-03-08T05:24:13;2.80;80.40
59505;DHT22;45321;53.200;5.814;2024-03-08T05:26:41;2.80;80.40
59505;DHT22;45321;53.200;5.814;2024-03-08T05:29:10;2.80;80.40
59505;DHT22;45321;53.200;5.814;2024-03-08T05:31:46;2.80;80.40
59505;DHT22;45321;53.200;5.814;2024-03-08T05:34:13;2.80;80.40
59505;DHT22;45321;53.200;5.814;2024-03-08T05:36:41;2.80;80.50
59505;DHT22;45321;53.200;5.814;2024-03-08T05:39:08;2.80;80.40
59505;DHT22;45321;53.200;5.814;2024-03-08T05:41:38;2.80;80.50
59505;DHT22;45321;53.200;5.814;2024-03-08T05:44:04;2.80;80.50
59505;DHT22;45321;53.200;5.814;2024-03-08T05:46:30;2.70;80.40
59505;DHT22;45321;53.200;5.814;2024-03-08T05:48:56;2.80;80.40
59505;DHT22;45321;53.200;5.814;2024-03-08T05:51:24;2.80;80.40
59505;DHT22;45321;53.200;5.814;2024-03-08T05:53:51;2.70;80.30
59505;DHT22;45321;53.200;5.814;2024-03-08T05:56:19;2.70;80.30
59505;DHT22;45321;53.200;5.814;2024-03-08T05:58:45;2.70;80.30
59505;DHT22;45321;53.200;5.814;2024-03-08T06:01:11;2.60;80.30
59505;DHT22;45321;53.200;5.814;2024-03-08T06:03:38;2.60;80.30
59505;DHT22;45321;53.200;5.814;2024-03-08T06:06:14;2.60;80.40
59505;DHT22;45321;53.200;5.814;2024-03-08T06:08:40;2.60;80.40
59505;DHT22;45321;53.200;5.814;2024-03-08T06:11:08;2.60;80.40
59505;DHT22;45321;53.200;5.814;2024-03-08T06:13:34;2.50;80.40
59505;DHT22;45321;53.200;5.814;2024-03-08T06:16:00;2.60;80.50
59505;DHT22;45321;53.200;5.814;2024-03-08T06:18:30;2.50;80.40
59505;DHT22;45321;53.200;5.814;2024-03-08T06:20:56;2.50;80.40
59505;DHT22;45321;53.200;5.814;2024-03-08T06:23:22;2.50;80.40
59505;DHT22;45321;53.200;5.814;2024-03-08T06:25:48;2.50;80.50
59505;DHT22;45321;53.200;5.814;2024-03-08T06:28:14;2.60;80.40
59505;DHT22;45321;53.200;5.814;2024-03-08T06:30:40;2.50;80.40
59505;DHT22;45321;53.200;5.814;2024-03-08T06:33:06;2.50;80.40
59505;DHT22;45321;53.200;5.814;2024-03-08T06:35:36;2.50;80.50
59505;DHT22;45321;53.200;5.814;2024-03-08T06:38:04;2.60;80.40
59505;DHT22;45321;53.200;5.814;2024-03-08T06:40:30;2.50;80.50
59505;DHT22;45321;53.200;5.814;2024-03-08T06:42:56;2.60;80.50
59505;DHT22;45321;53.200;5.814;2024-03-08T06:45:22;2.60;80.40
59505;DHT22;45321;53.200;5.814;2024-03-08T06:47:49;2.60;80.40
59505;DHT22;45321;53.200;5.814;2024-03-08T06:50:15;2.60;80.30
59505;DHT22;45321;53.200;5.814;2024-03-08T06:52:41;2.60;80.30
59505;DHT22;45321;53.200;5.814;2024-03-08T06:55:12;2.60;80.40
59505;DHT22;45321;53.200;5.814;2024-03-08T06:57:40;2.60;80.50
59505;DHT22;45321;53.200;5.814;2024-03-08T07:00:07;2.60;80.40
59505;DHT22;45321;53.200;5.814;2024-03-08T07:02:40;2.70;80.40
59505;DHT22;45321;53.200;5.814;2024-03-08T07:05:07;2.60;80.20
59505;DHT22;45321;53.200;5.814;2024-03-08T07:07:36;2.60;80.40
59505;DHT22;45321;53.200;5.814;2024-03-08T07:10:03;2.70;80.40
59505;DHT22;45321;53.200;5.814;2024-03-08T07:12:28;2.70;80.30
59505;DHT22;45321;53.200;5.814;2024-03-08T07:14:54;2.80;80.40
59505;DHT22;45321;53.200;5.814;2024-03-08T07:17:20;2.80;80.30
59505;DHT22;45321;53.200;5.814;2024-03-08T07:19:46;2.80;80.10
59505;DHT22;45321;53.200;5.814;2024-03-08T07:22:14;2.80;80.00
59505;DHT22;45321;53.200;5.814;2024-03-08T07:24:40;2.80;80.00
59505;DHT22;45321;53.200;5.814;2024-03-08T07:27:24;2.80;79.90
59505;DHT22;45321;53.200;5.814;2024-03-08T07:29:50;2.90;79.90
59505;DHT22;45321;53.200;5.814;2024-03-08T07:32:16;2.90;79.80
59505;DHT22;45321;53.200;5.814;2024-03-08T07:34:47;2.90;79.90
59505;DHT22;45321;53.200;5.814;2024-03-08T07:37:14;3.00;79.80
59505;DHT22;45321;53.200;5.814;2024-03-08T07:39:40;3.00;79.80
59505;DHT22;45321;53.200;5.814;2024-03-08T07:42:06;3.00;79.60
59505;DHT22;45321;53.200;5.814;2024-03-08T07:44:32;3.10;79.50
59505;DHT22;45321;53.200;5.814;2024-03-08T07:46:58;3.10;79.40
59505;DHT22;45321;53.200;5.814;2024-03-08T07:49:24;3.20;79.30
59505;DHT22;45321;53.200;5.814;2024-03-08T07:51:50;3.30;79.40
59505;DHT22;45321;53.200;5.814;2024-03-08T07:54:17;3.30;79.20
59505;DHT22;45321;53.200;5.814;2024-03-08T07:56:43;3.40;78.80
59505;DHT22;45321;53.200;5.814;2024-03-08T07:59:08;3.50;78.90
59505;DHT22;45321;53.200;5.814;2024-03-08T08:01:36;3.50;78.70
59505;DHT22;45321;53.200;5.814;2024-03-08T08:04:02;3.60;78.50
59505;DHT22;45321;53.200;5.814;2024-03-08T08:06:28;3.60;78.50
59505;DHT22;45321;53.200;5.814;2024-03-08T08:08:57;3.70;78.30
59505;DHT22;45321;53.200;5.814;2024-03-08T08:11:25;3.70;78.20
59505;DHT22;45321;53.200;5.814;2024-03-08T08:13:51;3.80;77.90
59505;DHT22;45321;53.200;5.814;2024-03-08T08:16:16;3.80;78.00
59505;DHT22;45321;53.200;5.814;2024-03-08T08:18:42;3.90;77.90
59505;DHT22;45321;53.200;5.814;2024-03-08T08:21:11;4.00;77.90
59505;DHT22;45321;53.200;5.814;2024-03-08T08:23:37;4.00;77.70
59505;DHT22;45321;53.200;5.814;2024-03-08T08:26:03;4.10;77.50
59505;DHT22;45321;53.200;5.814;2024-03-08T08:28:30;4.10;77.30
59505;DHT22;45321;53.200;5.814;2024-03-08T08:30:56;4.30;77.20
59505;DHT22;45321;53.200;5.814;2024-03-08T08:33:22;4.30;77.40
59505;DHT22;45321;53.200;5.814;2024-03-08T08:35:48;4.40;77.00
59505;DHT22;45321;53.200;5.814;2024-03-08T08:38:13;4.50;76.60
59505;DHT22;45321;53.200;5.814;2024-03-08T08:40:39;4.50;76.60
59505;DHT22;45321;53.200;5.814;2024-03-08T08:43:05;4.60;75.70
59505;DHT22;45321;53.200;5.814;2024-03-08T08:45:31;4.70;75.80
59505;DHT22;45321;53.200;5.814;2024-03-08T08:47:57;4.80;75.50
59505;DHT22;45321;53.200;5.814;2024-03-08T08:50:25;4.90;75.30
59505;DHT22;45321;53.200;5.814;2024-03-08T08:52:52;5.00;75.20
59505;DHT22;45321;53.200;5.814;2024-03-08T08:55:19;5.10;75.00
59505;DHT22;45321;53.200;5.814;2024-03-08T08:57:47;5.20;74.70
59505;DHT22;45321;53.200;5.814;2024-03-08T09:00:18;5.30;74.30
59505;DHT22;45321;53.200;5.814;2024-03-08T09:02:46;5.30;73.40
59505;DHT22;45321;53.200;5.814;2024-03-08T09:05:12;5.30;72.90
59505;DHT22;45321;53.200;5.814;2024-03-08T09:07:40;5.40;72.90
59505;DHT22;45321;53.200;5.814;2024-03-08T09:10:06;5.50;72.40
59505;DHT22;45321;53.200;5.814;2024-03-08T09:12:35;5.60;72.90
59505;DHT22;45321;53.200;5.814;2024-03-08T09:15:00;5.70;72.80
59505;DHT22;45321;53.200;5.814;2024-03-08T09:17:26;5.70;72.50
59505;DHT22;45321;53.200;5.814;2024-03-08T09:19:52;5.80;72.30
59505;DHT22;45321;53.200;5.814;2024-03-08T09:22:18;5.90;72.10
59505;DHT22;45321;53.200;5.814;2024-03-08T09:24:43;6.00;71.70
59505;DHT22;45321;53.200;5.814;2024-03-08T09:27:09;6.10;70.10
59505;DHT22;45321;53.200;5.814;2024-03-08T09:29:35;6.10;70.90
59505;DHT22;45321;53.200;5.814;2024-03-08T09:32:01;6.20;71.10
59505;DHT22;45321;53.200;5.814;2024-03-08T09:34:27;6.30;70.50
59505;DHT22;45321;53.200;5.814;2024-03-08T09:36:53;6.40;69.90
59505;DHT22;45321;53.200;5.814;2024-03-08T09:39:19;6.40;69.80
59505;DHT22;45321;53.200;5.814;2024-03-08T09:41:46;6.50;69.20
59505;DHT22;45321;53.200;5.814;2024-03-08T09:44:16;6.60;69.60
59505;DHT22;45321;53.200;5.814;2024-03-08T09:46:42;6.70;68.50
59505;DHT22;45321;53.200;5.814;2024-03-08T09:49:08;6.90;67.50
59505;DHT22;45321;53.200;5.814;2024-03-08T09:51:35;6.90;67.20
59505;DHT22;45321;53.200;5.814;2024-03-08T09:54:02;7.00;67.60
59505;DHT22;45321;53.200;5.814;2024-03-08T09:56:32;7.10;66.70
59505;DHT22;45321;53.200;5.814;2024-03-08T09:59:02;7.10;64.80
59505;DHT22;45321;53.200;5.814;2024-03-08T10:01:51;7.10;64.50
59505;DHT22;45321;53.200;5.814;2024-03-08T10:04:18;7.20;63.30
59505;DHT22;45321;53.200;5.814;2024-03-08T10:06:45;7.20;63.20
59505;DHT22;45321;53.200;5.814;2024-03-08T10:09:12;7.30;63.50
59505;DHT22;45321;53.200;5.814;2024-03-08T10:11:40;7.30;63.80
59505;DHT22;45321;53.200;5.814;2024-03-08T10:14:07;7.30;63.20
59505;DHT22;45321;53.200;5.814;2024-03-08T10:16:33;7.40;62.60
59505;DHT22;45321;53.200;5.814;2024-03-08T10:19:00;7.40;62.40
59505;DHT22;45321;53.200;5.814;2024-03-08T10:21:26;7.40;62.00
59505;DHT22;45321;53.200;5.814;2024-03-08T10:23:53;7.40;62.50
59505;DHT22;45321;53.200;5.814;2024-03-08T10:26:19;7.60;63.20
59505;DHT22;45321;53.200;5.814;2024-03-08T10:28:48;7.60;62.80
59505;DHT22;45321;53.200;5.814;2024-03-08T10:31:15;7.70;62.60
59505;DHT22;45321;53.200;5.814;2024-03-08T10:33:41;7.80;62.10
59505;DHT22;45321;53.200;5.814;2024-03-08T10:36:08;7.80;62.50
59505;DHT22;45321;53.200;5.814;2024-03-08T10:38:36;7.90;62.00
59505;DHT22;45321;53.200;5.814;2024-03-08T10:41:03;7.90;61.10
59505;DHT22;45321;53.200;5.814;2024-03-08T10:43:36;7.90;60.80
59505;DHT22;45321;53.200;5.814;2024-03-08T10:46:20;7.90;61.80
59505;DHT22;45321;53.200;5.814;2024-03-08T10:48:50;8.10;62.30
59505;DHT22;45321;53.200;5.814;2024-03-08T10:51:19;8.20;62.60
59505;DHT22;45321;53.200;5.814;2024-03-08T10:53:46;8.30;62.50
59505;DHT22;45321;53.200;5.814;2024-03-08T10:56:14;8.40;62.10
59505;DHT22;45321;53.200;5.814;2024-03-08T10:58:40;8.60;61.70
59505;DHT22;45321;53.200;5.814;2024-03-08T11:01:07;8.70;61.10
59505;DHT22;45321;53.200;5.814;2024-03-08T11:03:45;8.80;60.80
59505;DHT22;45321;53.200;5.814;2024-03-08T11:08:51;9.10;60.80
59505;DHT22;45321;53.200;5.814;2024-03-08T11:11:31;9.30;59.80
59505;DHT22;45321;53.200;5.814;2024-03-08T11:13:58;9.30;59.70
59505;DHT22;45321;53.200;5.814;2024-03-08T11:19:07;9.70;59.50
59505;DHT22;45321;53.200;5.814;2024-03-08T11:22:00;9.90;59.40
59505;DHT22;45321;53.200;5.814;2024-03-08T11:24:26;10.20;59.00
59505;DHT22;45321;53.200;5.814;2024-03-08T11:26:57;10.40;58.70
59505;DHT22;45321;53.200;5.814;2024-03-08T11:32:17;10.80;56.90
59505;DHT22;45321;53.200;5.814;2024-03-08T11:34:48;11.00;55.40
59505;DHT22;45321;53.200;5.814;2024-03-08T11:37:20;11.00;53.90
59505;DHT22;45321;53.200;5.814;2024-03-08T11:39:53;11.20;55.40
59505;DHT22;45321;53.200;5.814;2024-03-08T11:42:24;11.30;54.30
59505;DHT22;45321;53.200;5.814;2024-03-08T11:44:52;11.60;53.70
59505;DHT22;45321;53.200;5.814;2024-03-08T11:47:21;11.70;53.80
59505;DHT22;45321;53.200;5.814;2024-03-08T11:49:47;11.90;54.50
59505;DHT22;45321;53.200;5.814;2024-03-08T11:52:17;11.80;52.60
59505;DHT22;45321;53.200;5.814;2024-03-08T11:54:48;11.90;52.50
59505;DHT22;45321;53.200;5.814;2024-03-08T11:57:21;12.00;52.60
59505;DHT22;45321;53.200;5.814;2024-03-08T11:59:54;12.30;53.00
59505;DHT22;45321;53.200;5.814;2024-03-08T12:02:24;12.50;52.60
59505;DHT22;45321;53.200;5.814;2024-03-08T12:05:00;12.70;53.30
59505;DHT22;45321;53.200;5.814;2024-03-08T12:07:29;13.00;53.40
59505;DHT22;45321;53.200;5.814;2024-03-08T12:10:19;13.20;51.70
59505;DHT22;45321;53.200;5.814;2024-03-08T12:12:48;13.30;49.70
59505;DHT22;45321;53.200;5.814;2024-03-08T12:15:15;13.30;49.00
59505;DHT22;45321;53.200;5.814;2024-03-08T12:17:41;13.50;49.70
59505;DHT22;45321;53.200;5.814;2024-03-08T12:20:17;13.70;50.60
59505;DHT22;45321;53.200;5.814;2024-03-08T12:22:44;13.80;50.20
59505;DHT22;45321;53.200;5.814;2024-03-08T12:25:13;14.10;49.60
59505;DHT22;45321;53.200;5.814;2024-03-08T12:27:40;14.10;48.10
59505;DHT22;45321;53.200;5.814;2024-03-08T12:30:23;14.20;49.00
59505;DHT22;45321;53.200;5.814;2024-03-08T12:32:56;14.40;49.10
59505;DHT22;45321;53.200;5.814;2024-03-08T12:35:31;14.70;48.30
59505;DHT22;45321;53.200;5.814;2024-03-08T12:37:59;14.80;47.40
59505;DHT22;45321;53.200;5.814;2024-03-08T12:40:30;14.80;46.60
59505;DHT22;45321;53.200;5.814;2024-03-08T12:42:57;14.70;46.00
59505;DHT22;45321;53.200;5.814;2024-03-08T12:45:24;14.90;46.90
59505;DHT22;45321;53.200;5.814;2024-03-08T12:47:51;15.00;46.20
59505;DHT22;45321;53.200;5.814;2024-03-08T12:50:17;15.20;46.60
59505;DHT22;45321;53.200;5.814;2024-03-08T12:52:43;15.30;46.00
59505;DHT22;45321;53.200;5.814;2024-03-08T12:55:09;15.60;45.80
59505;DHT22;45321;53.200;5.814;2024-03-08T12:57:35;15.70;44.40
59505;DHT22;45321;53.200;5.814;2024-03-08T13:00:03;15.70;44.40
59505;DHT22;45321;53.200;5.814;2024-03-08T13:02:30;15.60;43.20
59505;DHT22;45321;53.200;5.814;2024-03-08T13:04:57;15.50;42.90
59505;DHT22;45321;53.200;5.814;2024-03-08T13:07:24;15.60;44.00
59505;DHT22;45321;53.200;5.814;2024-03-08T13:09:54;15.80;44.50
59505;DHT22;45321;53.200;5.814;2024-03-08T13:12:23;16.00;43.40
59505;DHT22;45321;53.200;5.814;2024-03-08T13:14:49;16.30;42.10
59505;DHT22;45321;53.200;5.814;2024-03-08T13:17:15;16.30;41.90
59505;DHT22;45321;53.200;5.814;2024-03-08T13:19:41;16.50;42.80
59505;DHT22;45321;53.200;5.814;2024-03-08T13:22:08;16.80;42.70
59505;DHT22;45321;53.200;5.814;2024-03-08T13:24:43;17.10;42.40
59505;DHT22;45321;53.200;5.814;2024-03-08T13:27:11;17.30;41.90
59505;DHT22;45321;53.200;5.814;2024-03-08T13:29:46;17.50;41.50
59505;DHT22;45321;53.200;5.814;2024-03-08T13:32:13;17.80;41.60
59505;DHT22;45321;53.200;5.814;2024-03-08T13:34:43;18.10;41.00
59505;DHT22;45321;53.200;5.814;2024-03-08T13:37:09;18.20;40.40
59505;DHT22;45321;53.200;5.814;2024-03-08T13:39:37;18.30;39.20
59505;DHT22;45321;53.200;5.814;2024-03-08T13:42:16;18.30;37.90
59505;DHT22;45321;53.200;5.814;2024-03-08T13:44:46;18.20;38.70
59505;DHT22;45321;53.200;5.814;2024-03-08T13:47:16;18.30;39.50
59505;DHT22;45321;53.200;5.814;2024-03-08T13:49:43;18.60;38.40
59505;DHT22;45321;53.200;5.814;2024-03-08T13:52:10;18.60;38.70
59505;DHT22;45321;53.200;5.814;2024-03-08T13:54:36;18.90;38.80
59505;DHT22;45321;53.200;5.814;2024-03-08T13:57:04;19.10;35.50
59505;DHT22;45321;53.200;5.814;2024-03-08T13:59:31;19.10;37.40
59505;DHT22;45321;53.200;5.814;2024-03-08T14:01:59;19.40;38.10
59505;DHT22;45321;53.200;5.814;2024-03-08T14:04:26;19.80;37.70
59505;DHT22;45321;53.200;5.814;2024-03-08T14:06:53;20.00;36.80
59505;DHT22;45321;53.200;5.814;2024-03-08T14:09:23;20.20;35.60
59505;DHT22;45321;53.200;5.814;2024-03-08T14:11:51;20.30;36.00
59505;DHT22;45321;53.200;5.814;2024-03-08T14:14:21;20.60;35.60
59505;DHT22;45321;53.200;5.814;2024-03-08T14:16:49;20.80;35.50
59505;DHT22;45321;53.200;5.814;2024-03-08T14:19:21;21.20;35.20
59505;DHT22;45321;53.200;5.814;2024-03-08T14:21:47;21.40;34.80
59505;DHT22;45321;53.200;5.814;2024-03-08T14:24:18;21.70;34.80
59505;DHT22;45321;53.200;5.814;2024-03-08T14:26:44;22.10;33.80
59505;DHT22;45321;53.200;5.814;2024-03-08T14:29:10;22.50;34.00
59505;DHT22;45321;53.200;5.814;2024-03-08T14:31:39;22.30;32.20
59505;DHT22;45321;53.200;5.814;2024-03-08T14:34:06;22.40;31.60
59505;DHT22;45321;53.200;5.814;2024-03-08T14:36:32;22.00;31.10
59505;DHT22;45321;53.200;5.814;2024-03-08T14:38:58;22.20;31.70
59505;DHT22;45321;53.200;5.814;2024-03-08T14:41:24;22.20;31.10
59505;DHT22;45321;53.200;5.814;2024-03-08T14:43:50;22.30;31.10
59505;DHT22;45321;53.200;5.814;2024-03-08T14:46:19;22.30;31.70
59505;DHT22;45321;53.200;5.814;2024-03-08T14:48:46;22.30;29.80
59505;DHT22;45321;53.200;5.814;2024-03-08T14:51:13;21.70;30.30
59505;DHT22;45321;53.200;5.814;2024-03-08T14:53:42;21.90;29.90
59505;DHT22;45321;53.200;5.814;2024-03-08T14:56:11;21.90;31.50
59505;DHT22;45321;53.200;5.814;2024-03-08T14:58:44;22.10;29.90
59505;DHT22;45321;53.200;5.814;2024-03-08T15:01:15;21.80;30.10
59505;DHT22;45321;53.200;5.814;2024-03-08T15:03:44;22.10;31.90
59505;DHT22;45321;53.200;5.814;2024-03-08T15:06:10;22.20;31.80
59505;DHT22;45321;53.200;5.814;2024-03-08T15:08:36;22.30;31.20
59505;DHT22;45321;53.200;5.814;2024-03-08T15:11:03;22.30;30.60
59505;DHT22;45321;53.200;5.814;2024-03-08T15:13:29;22.50;32.30
59505;DHT22;45321;53.200;5.814;2024-03-08T15:16:09;22.20;30.00
59505;DHT22;45321;53.200;5.814;2024-03-08T15:18:40;21.80;31.10
59505;DHT22;45321;53.200;5.814;2024-03-08T15:21:06;22.00;31.10
59505;DHT22;45321;53.200;5.814;2024-03-08T15:23:34;22.20;30.50
59505;DHT22;45321;53.200;5.814;2024-03-08T15:26:00;22.50;31.60
59505;DHT22;45321;53.200;5.814;2024-03-08T15:28:27;22.80;30.80
59505;DHT22;45321;53.200;5.814;2024-03-08T15:31:05;22.90;30.80
59505;DHT22;45321;53.200;5.814;2024-03-08T15:33:36;23.00;30.50
59505;DHT22;45321;53.200;5.814;2024-03-08T15:36:11;23.30;30.70
59505;DHT22;45321;53.200;5.814;2024-03-08T15:38:39;23.60;29.90
59505;DHT22;45321;53.200;5.814;2024-03-08T15:41:05;23.70;29.70
59505;DHT22;45321;53.200;5.814;2024-03-08T15:43:41;23.60;29.80
59505;DHT22;45321;53.200;5.814;2024-03-08T15:46:08;23.60;30.10
59505;DHT22;45321;53.200;5.814;2024-03-08T15:48:35;23.20;28.30
59505;DHT22;45321;53.200;5.814;2024-03-08T15:51:06;23.10;30.30
59505;DHT22;45321;53.200;5.814;2024-03-08T15:53:33;23.40;30.50